LFMN/NCE METAR and TAF weather

Enter ICAO airport designator
Station Type Date Time Source
LFMN METAR 2019/08/18 08:30 UTC NOAA

LFMN 180830Z 09006KT 9999 FEW018 BKN033 26/21 Q1016 NOSIG


Station Type Date Time Source
LFMN Decoded METAR 2019/08/18 08:30 UTC NOAA

Station name not available
Aug 18, 2019 - 04:30 AM EDT / 2019.08.18 0830 UTC
Wind: from the E (090 degrees) at 7 MPH (6 KT):0
Visibility: greater than 7 mile(s):0
Sky conditions: mostly cloudy
Temperature: 78 F (26 C)
Dew Point: 69 F (21 C)
Relative Humidity: 73%
Pressure (altimeter): 30.00 in. Hg (1016 hPa)
ob: LFMN 180830Z 09006KT 9999 FEW018 BKN033 26/21 Q1016 NOSIG
cycle: 8

Station Type Date Time Source
LFMN TAF 2019/08/18 09:24 UTC NOAA

TAF TAF LFMN 180800Z 1809/1915 14010KT 9999 FEW025
BECMG 1818/1820 VRB02KT
BECMG 1822/1824 34010KT
TEMPO 1900/1906 BKN014
BECMG 1908/1910 16010KT

Example: see airport list